Time;durP1;ratioP1;P1;durP2;ratioP2;P2;SDS_P1;SDS_P2;PMS_P1;PMS_P2;Temp;Humidity;BMP_temperature;BMP_pressure;BME280_temperature;BME280_humidity;BME280_pressure;Samples;Min_cycle;Max_cycle;Signal;HPM_P1;HPM_P2
2022/05/02 00:01:59;;;;;;;;;;;7.70;98.00;;;;;;5018781;28;38470;-57
2022/05/02 00:04:26;;;;;;;;;;;7.60;98.10;;;;;;5020287;28;39336;-57
2022/05/02 00:06:53;;;;;;;;;;;7.60;97.80;;;;;;5022789;28;37251;-56
2022/05/02 00:09:21;;;;;;;;;;;7.60;97.90;;;;;;5023492;28;37909;-57
2022/05/02 00:11:48;;;;;;;;;;;7.60;98.20;;;;;;5023377;28;38790;-57
2022/05/02 00:14:15;;;;;;;;;;;7.60;98.20;;;;;;5023940;28;39113;-56
2022/05/02 00:16:42;;;;;;;;;;;7.60;98.20;;;;;;5023291;28;37466;-56
2022/05/02 00:19:09;;;;;;;;;;;7.60;98.30;;;;;;5023033;28;37269;-56
2022/05/02 00:21:36;;;;;;;;;;;7.70;98.50;;;;;;5023321;28;40039;-56
2022/05/02 00:24:04;;;;;;;;;;;7.70;98.70;;;;;;5022948;28;38904;-56
2022/05/02 00:26:32;;;;;;;;;;;7.70;98.60;;;;;;5023295;28;36950;-57
2022/05/02 00:28:59;;;;;;;;;;;7.70;98.70;;;;;;5022358;28;34802;-57
2022/05/02 00:31:26;;;;;;;;;;;7.70;98.70;;;;;;5022198;28;39306;-56
2022/05/02 00:33:53;;;;;;;;;;;7.80;98.20;;;;;;5022439;28;36659;-56
2022/05/02 00:36:20;;;;;;;;;;;7.80;98.00;;;;;;5023165;28;37016;-56
2022/05/02 00:38:47;;;;;;;;;;;7.80;98.30;;;;;;5021875;28;36221;-56
2022/05/02 00:41:15;;;;;;;;;;;7.80;98.40;;;;;;5023135;28;37869;-57
2022/05/02 00:43:43;;;;;;;;;;;7.80;99.00;;;;;;5023181;28;39085;-57
2022/05/02 00:46:17;;;;;;;;;;;7.80;99.00;;;;;;5022541;28;37925;-56
2022/05/02 00:48:44;;;;;;;;;;;7.90;99.20;;;;;;5023321;28;37129;-56
2022/05/02 00:51:11;;;;;;;;;;;7.80;98.30;;;;;;5022615;28;37935;-56
2022/05/02 00:53:38;;;;;;;;;;;7.80;98.50;;;;;;5022989;28;36506;-56
2022/05/02 00:56:06;;;;;;;;;;;8.30;98.70;;;;;;5023240;28;37259;-56
2022/05/02 00:58:34;;;;;;;;;;;7.80;98.50;;;;;;5021110;28;37371;-56
2022/05/02 01:01:03;;;;;;;;;;;7.80;98.40;;;;;;5023408;28;38785;-56
2022/05/02 01:03:30;;;;;;;;;;;7.80;99.10;;;;;;5022160;28;37887;-57
2022/05/02 01:08:43;;;;;;;;;;;7.80;98.90;;;;;;5021719;28;38219;-57
2022/05/02 01:11:10;;;;;;;;;;;7.80;98.80;;;;;;5020700;28;36575;-56
2022/05/02 01:13:38;;;;;;;;;;;7.80;99.40;;;;;;5020714;28;38025;-57
2022/05/02 01:16:14;;;;;;;;;;;7.80;99.10;;;;;;5021622;28;38257;-57
2022/05/02 01:18:41;;;;;;;;;;;7.90;99.40;;;;;;5020224;28;36242;-56
2022/05/02 01:21:14;;;;;;;;;;;7.80;99.00;;;;;;5020976;28;37941;-56
2022/05/02 01:23:41;;;;;;;;;;;7.90;99.80;;;;;;5021304;28;38056;-56
2022/05/02 01:26:08;;;;;;;;;;;7.90;99.20;;;;;;5020528;28;36911;-56
2022/05/02 01:28:41;;;;;;;;;;;7.80;99.00;;;;;;5020626;28;36301;-56
2022/05/02 01:31:08;;;;;;;;;;;7.80;98.60;;;;;;5020433;28;38295;-56
2022/05/02 01:33:35;;;;;;;;;;;7.80;98.80;;;;;;5020588;28;37697;-56
2022/05/02 01:36:02;;;;;;;;;;;7.80;98.60;;;;;;5020882;28;38250;-56
2022/05/02 01:38:31;;;;;;;;;;;7.70;99.10;;;;;;5021048;28;35177;-56
2022/05/02 01:40:59;;;;;;;;;;;7.70;98.60;;;;;;5019652;28;36575;-56
2022/05/02 01:43:26;;;;;;;;;;;7.70;98.60;;;;;;5019368;28;37688;-57
2022/05/02 01:45:54;;;;;;;;;;;7.60;98.50;;;;;;5018902;28;37170;-56
2022/05/02 01:48:21;;;;;;;;;;;7.60;98.50;;;;;;5020406;28;36399;-56
2022/05/02 01:50:48;;;;;;;;;;;7.50;98.30;;;;;;5020902;28;37605;-56
2022/05/02 01:53:15;;;;;;;;;;;7.40;98.40;;;;;;5019758;28;40051;-56
2022/05/02 01:55:43;;;;;;;;;;;7.40;98.40;;;;;;5020421;28;37024;-56
2022/05/02 01:58:10;;;;;;;;;;;7.40;98.30;;;;;;5021517;28;37256;-57
2022/05/02 02:00:38;;;;;;;;;;;7.30;98.40;;;;;;5018944;28;37778;-57
2022/05/02 02:03:05;;;;;;;;;;;7.30;98.40;;;;;;5019290;28;36464;-56
2022/05/02 02:08:27;;;;;;;;;;;7.20;98.60;;;;;;5086291;27;20738;-56
2022/05/02 02:10:55;;;;;;;;;;;7.10;98.70;;;;;;5085739;27;37528;-57
2022/05/02 02:13:22;;;;;;;;;;;7.20;98.70;;;;;;5085016;27;37317;-56
2022/05/02 02:15:49;;;;;;;;;;;7.10;98.70;;;;;;5084372;27;36546;-56
2022/05/02 02:18:16;;;;;;;;;;;7.10;98.80;;;;;;5085241;27;37886;-56
2022/05/02 02:20:44;;;;;;;;;;;7.10;98.50;;;;;;5085838;27;37750;-56
2022/05/02 02:23:12;;;;;;;;;;;7.10;98.50;;;;;;5084654;27;35510;-56
2022/05/02 02:25:40;;;;;;;;;;;7.00;98.50;;;;;;5085856;27;38886;-56
2022/05/02 02:28:07;;;;;;;;;;;7.00;98.50;;;;;;5084963;27;37602;-56
2022/05/02 02:30:35;;;;;;;;;;;6.90;98.50;;;;;;5086140;27;37063;-56
2022/05/02 02:33:01;;;;;;;;;;;6.80;98.60;;;;;;5086361;27;36600;-56
2022/05/02 02:35:29;;;;;;;;;;;6.80;98.70;;;;;;5085216;27;37889;-57
2022/05/02 02:37:56;;;;;;;;;;;6.80;99.00;;;;;;5084850;27;35105;-56
2022/05/02 02:40:23;;;;;;;;;;;6.70;99.30;;;;;;5085675;27;37289;-56
2022/05/02 02:42:51;;;;;;;;;;;6.70;99.80;;;;;;5085361;27;37123;-56
2022/05/02 02:45:18;;;;;;;;;;;6.70;99.60;;;;;;5085304;27;37339;-56
2022/05/02 02:47:45;;;;;;;;;;;6.60;99.20;;;;;;5085750;27;37374;-56
2022/05/02 02:50:13;;;;;;;;;;;6.60;98.80;;;;;;5084624;27;37332;-56
2022/05/02 02:52:40;;;;;;;;;;;6.60;98.70;;;;;;5084750;27;37224;-56
2022/05/02 02:55:07;;;;;;;;;;;6.50;98.90;;;;;;5085882;27;37525;-56
2022/05/02 02:57:34;;;;;;;;;;;6.50;98.80;;;;;;5085793;27;38212;-56
2022/05/02 03:00:04;;;;;;;;;;;6.50;98.70;;;;;;5084116;27;37644;-56
2022/05/02 03:02:31;;;;;;;;;;;6.50;98.50;;;;;;5085718;27;36104;-56
2022/05/02 03:07:42;;;;;;;;;;;6.40;98.60;;;;;;5115428;27;38848;-56
2022/05/02 03:10:09;;;;;;;;;;;6.40;98.50;;;;;;5125198;27;36518;-56
2022/05/02 03:12:37;;;;;;;;;;;6.40;98.70;;;;;;5125749;27;37841;-56
2022/05/02 03:15:06;;;;;;;;;;;6.40;98.60;;;;;;5125429;27;38971;-55
2022/05/02 03:17:33;;;;;;;;;;;6.50;98.70;;;;;;5124359;27;37877;-56
2022/05/02 03:20:00;;;;;;;;;;;6.30;98.80;;;;;;5111304;27;35553;-55
2022/05/02 03:22:27;;;;;;;;;;;6.30;99.00;;;;;;5113108;27;37585;-56
2022/05/02 03:24:54;;;;;;;;;;;6.40;98.80;;;;;;5113284;27;36755;-56
2022/05/02 03:27:21;;;;;;;;;;;6.30;98.80;;;;;;5113394;27;36871;-56
2022/05/02 03:29:48;;;;;;;;;;;6.30;99.00;;;;;;5112836;27;37115;-56
2022/05/02 03:32:17;;;;;;;;;;;6.30;98.80;;;;;;5111319;27;36523;-56
2022/05/02 03:34:44;;;;;;;;;;;6.30;98.70;;;;;;5111052;27;38581;-56
2022/05/02 03:37:11;;;;;;;;;;;6.30;98.50;;;;;;5112096;27;37223;-56
2022/05/02 03:39:38;;;;;;;;;;;6.20;98.50;;;;;;5111656;27;37729;-56
2022/05/02 03:42:06;;;;;;;;;;;6.20;98.50;;;;;;5112015;27;36986;-56
2022/05/02 03:44:33;;;;;;;;;;;6.20;98.60;;;;;;5111195;27;36451;-56
2022/05/02 03:47:00;;;;;;;;;;;6.20;98.70;;;;;;5112407;27;37187;-56
2022/05/02 03:49:28;;;;;;;;;;;6.20;98.60;;;;;;5111849;27;35467;-56
2022/05/02 03:51:55;;;;;;;;;;;6.10;98.60;;;;;;5110961;27;35201;-56
2022/05/02 03:54:23;;;;;;;;;;;6.10;98.90;;;;;;5111936;27;38918;-56
2022/05/02 03:56:50;;;;;;;;;;;6.10;99.20;;;;;;5112244;27;37952;-56
2022/05/02 03:59:17;;;;;;;;;;;6.20;99.00;;;;;;5111252;27;36793;-56
2022/05/02 04:01:45;;;;;;;;;;;6.10;98.80;;;;;;5111645;27;36389;-56
2022/05/02 04:04:12;;;;;;;;;;;6.10;98.70;;;;;;5112480;27;36705;-56
2022/05/02 04:06:40;;;;;;;;;;;6.00;98.60;;;;;;5109216;27;37577;-56
2022/05/02 04:09:07;;;;;;;;;;;6.00;98.70;;;;;;5111445;27;36923;-56
2022/05/02 04:11:34;;;;;;;;;;;6.00;98.80;;;;;;5110792;27;35208;-56
2022/05/02 04:14:01;;;;;;;;;;;6.00;98.70;;;;;;5110012;27;37757;-56
2022/05/02 04:16:29;;;;;;;;;;;6.00;98.80;;;;;;5111000;27;37202;-56
2022/05/02 04:18:56;;;;;;;;;;;5.90;98.70;;;;;;5110617;27;38498;-56
2022/05/02 04:21:23;;;;;;;;;;;6.00;98.60;;;;;;5110548;27;37385;-56
2022/05/02 04:23:51;;;;;;;;;;;5.90;98.50;;;;;;5112383;27;38208;-56
2022/05/02 04:26:18;;;;;;;;;;;5.90;98.80;;;;;;5110883;27;38971;-56
2022/05/02 04:28:45;;;;;;;;;;;5.90;98.90;;;;;;5108956;27;37449;-56
2022/05/02 04:31:12;;;;;;;;;;;5.90;98.90;;;;;;5110292;27;36758;-56
2022/05/02 04:33:40;;;;;;;;;;;5.90;98.90;;;;;;5110638;27;36706;-56
2022/05/02 04:36:07;;;;;;;;;;;5.90;99.20;;;;;;5109742;27;36979;-56
2022/05/02 04:38:34;;;;;;;;;;;5.90;99.20;;;;;;5110742;27;37276;-56
2022/05/02 04:41:03;;;;;;;;;;;5.90;99.30;;;;;;5110883;27;36142;-56
2022/05/02 04:43:30;;;;;;;;;;;5.90;99.40;;;;;;5110790;27;37700;-56
2022/05/02 04:45:57;;;;;;;;;;;6.00;99.50;;;;;;5110368;27;36779;-56
2022/05/02 04:48:24;;;;;;;;;;;6.00;99.30;;;;;;5111273;27;37002;-56
2022/05/02 04:50:51;;;;;;;;;;;6.00;99.40;;;;;;5111726;27;37263;-56
2022/05/02 04:53:18;;;;;;;;;;;6.10;99.60;;;;;;5110668;27;38106;-56
2022/05/02 04:55:45;;;;;;;;;;;6.10;99.70;;;;;;5110293;27;37741;-56
2022/05/02 04:58:14;;;;;;;;;;;6.10;99.60;;;;;;5110730;27;36834;-56
2022/05/02 05:00:41;;;;;;;;;;;6.20;99.40;;;;;;5109347;27;36234;-56
2022/05/02 05:03:08;;;;;;;;;;;6.30;99.80;;;;;;5110530;27;36692;-56
2022/05/02 05:05:35;;;;;;;;;;;6.40;99.90;;;;;;5109759;27;38816;-56
2022/05/02 05:08:02;;;;;;;;;;;6.50;99.90;;;;;;5109943;27;35586;-56
2022/05/02 05:10:29;;;;;;;;;;;6.70;99.90;;;;;;5109916;27;36454;-56
2022/05/02 05:13:02;;;;;;;;;;;6.80;99.90;;;;;;5110890;27;37717;-54
2022/05/02 05:18:35;;;;;;;;;;;7.20;99.90;;;;;;5110305;27;37520;-56
2022/05/02 05:21:03;;;;;;;;;;;7.50;99.90;;;;;;5109216;27;36976;-56
2022/05/02 05:23:36;;;;;;;;;;;7.90;99.90;;;;;;5109073;27;37725;-56
2022/05/02 05:26:09;;;;;;;;;;;8.10;99.40;;;;;;5111179;27;38496;-56
2022/05/02 05:28:42;;;;;;;;;;;8.30;98.90;;;;;;5109617;27;37926;-54
2022/05/02 05:31:26;;;;;;;;;;;8.60;98.40;;;;;;5109722;27;37596;-56
2022/05/02 05:34:04;;;;;;;;;;;8.70;98.50;;;;;;5110775;27;37714;-56
2022/05/02 05:36:35;;;;;;;;;;;8.90;98.00;;;;;;5109980;27;37097;-56
2022/05/02 05:39:04;;;;;;;;;;;9.00;97.90;;;;;;5110831;27;36540;-57
2022/05/02 05:41:39;;;;;;;;;;;9.20;97.50;;;;;;5109456;27;35145;-56
2022/05/02 05:44:12;;;;;;;;;;;9.40;97.90;;;;;;5106913;27;37899;-56
2022/05/02 05:46:56;;;;;;;;;;;9.60;98.10;;;;;;5109127;27;37509;-56
2022/05/02 05:49:28;;;;;;;;;;;9.80;97.90;;;;;;5110183;27;37116;-56
2022/05/02 05:51:58;;;;;;;;;;;10.10;97.30;;;;;;5110102;27;37896;-57
2022/05/02 05:54:32;;;;;;;;;;;10.20;97.40;;;;;;5110539;27;38995;-56
2022/05/02 05:57:03;;;;;;;;;;;10.40;97.30;;;;;;5109032;27;37413;-56
2022/05/02 05:59:33;;;;;;;;;;;10.60;96.90;;;;;;5110012;27;35959;-56
2022/05/02 06:02:05;;;;;;;;;;;10.80;96.60;;;;;;5108196;27;37745;-56
2022/05/02 06:04:33;;;;;;;;;;;11.00;96.40;;;;;;5109750;27;36451;-56
2022/05/02 06:07:01;;;;;;;;;;;11.20;96.30;;;;;;5108474;27;38403;-57
2022/05/02 06:09:29;;;;;;;;;;;11.40;95.80;;;;;;5108001;27;36830;-56
2022/05/02 06:11:57;;;;;;;;;;;11.50;95.50;;;;;;5109230;27;36575;-56
2022/05/02 06:14:26;;;;;;;;;;;11.60;95.70;;;;;;5108885;27;37663;-56
2022/05/02 06:19:42;;;;;;;;;;;11.80;95.90;;;;;;5111281;27;37393;-56
2022/05/02 06:22:11;;;;;;;;;;;11.80;95.60;;;;;;5108982;27;36165;-56
2022/05/02 06:24:38;;;;;;;;;;;11.90;96.30;;;;;;5107960;27;37748;-57
2022/05/02 06:27:05;;;;;;;;;;;12.00;96.20;;;;;;5106542;27;39542;-56
2022/05/02 06:29:34;;;;;;;;;;;12.10;96.40;;;;;;5107865;27;35765;-57
2022/05/02 06:32:02;;;;;;;;;;;12.10;96.10;;;;;;5107380;27;36993;-56
2022/05/02 06:34:29;;;;;;;;;;;12.30;96.20;;;;;;5107549;27;38364;-56
2022/05/02 06:37:10;;;;;;;;;;;12.40;95.70;;;;;;5106550;27;39036;-57
2022/05/02 06:39:45;;;;;;;;;;;12.50;96.10;;;;;;5107027;27;37773;-56
2022/05/02 06:42:20;;;;;;;;;;;12.60;95.90;;;;;;5108348;27;39047;-56
2022/05/02 06:44:52;;;;;;;;;;;12.70;95.30;;;;;;5108841;27;37903;-56
2022/05/02 06:47:22;;;;;;;;;;;12.70;93.90;;;;;;5106467;27;37527;-56
2022/05/02 06:49:51;;;;;;;;;;;12.80;93.70;;;;;;5107394;27;36726;-56
2022/05/02 06:52:22;;;;;;;;;;;12.80;94.60;;;;;;5106867;27;36178;-56
2022/05/02 06:55:03;;;;;;;;;;;12.90;93.50;;;;;;5109948;27;38713;-57
2022/05/02 06:57:37;;;;;;;;;;;12.90;93.40;;;;;;5111047;27;37671;-56
2022/05/02 07:00:06;;;;;;;;;;;12.90;93.30;;;;;;5111370;27;37429;-57
2022/05/02 07:02:39;;;;;;;;;;;13.00;93.10;;;;;;5111105;27;37596;-56
2022/05/02 07:05:11;;;;;;;;;;;13.00;91.60;;;;;;5110512;27;39624;-56
2022/05/02 07:07:46;;;;;;;;;;;13.10;92.60;;;;;;5111026;27;38774;-56
2022/05/02 07:10:14;;;;;;;;;;;13.10;92.00;;;;;;5110692;27;37476;-56
2022/05/02 07:12:54;;;;;;;;;;;13.20;92.00;;;;;;5112333;27;36236;-56
2022/05/02 07:15:24;;;;;;;;;;;13.30;91.70;;;;;;5110364;27;37433;-56
2022/05/02 07:18:05;;;;;;;;;;;13.40;91.40;;;;;;5111740;27;38313;-57
2022/05/02 07:20:34;;;;;;;;;;;13.50;90.10;;;;;;5111517;27;38115;-56
2022/05/02 07:23:15;;;;;;;;;;;13.50;90.10;;;;;;5112008;27;36330;-56
2022/05/02 07:25:44;;;;;;;;;;;13.60;90.50;;;;;;5103007;27;37609;-57
2022/05/02 07:28:18;;;;;;;;;;;13.70;87.20;;;;;;5105508;27;37316;-56
2022/05/02 07:30:48;;;;;;;;;;;13.80;87.90;;;;;;5106603;27;35716;-56
2022/05/02 07:33:16;;;;;;;;;;;13.80;83.80;;;;;;5106427;27;36404;-56
2022/05/02 07:35:44;;;;;;;;;;;13.90;84.70;;;;;;5106792;27;38392;-56
2022/05/02 07:38:14;;;;;;;;;;;13.90;81.10;;;;;;5108111;27;36225;-56
2022/05/02 07:41:22;;;;;;;;;;;13.90;82.50;;;;;;5107274;27;36595;-56
2022/05/02 07:43:31;;;;;;;;;;;14.00;81.60;;;;;;5105736;27;37032;-56
2022/05/02 07:45:59;;;;;;;;;;;14.00;82.80;;;;;;5105659;27;38663;-56
2022/05/02 07:48:26;;;;;;;;;;;14.10;83.50;;;;;;5105532;27;37381;-56
2022/05/02 07:50:54;;;;;;;;;;;14.20;84.60;;;;;;5105140;27;37733;-56
2022/05/02 07:53:23;;;;;;;;;;;14.30;83.90;;;;;;5107668;27;37718;-56
2022/05/02 07:55:51;;;;;;;;;;;14.40;82.60;;;;;;5106468;27;37530;-56
2022/05/02 07:58:18;;;;;;;;;;;14.50;81.10;;;;;;5103054;27;38505;-56
2022/05/02 08:00:45;;;;;;;;;;;14.40;78.10;;;;;;5104281;27;38457;-56
2022/05/02 08:03:13;;;;;;;;;;;14.30;76.40;;;;;;5107560;27;36621;-56
2022/05/02 08:05:44;;;;;;;;;;;14.30;76.80;;;;;;5107644;27;38335;-56
2022/05/02 08:08:14;;;;;;;;;;;14.40;76.00;;;;;;5107447;27;38793;-56
2022/05/02 08:10:46;;;;;;;;;;;14.40;76.10;;;;;;5107178;27;38428;-56
2022/05/02 08:13:19;;;;;;;;;;;14.40;76.30;;;;;;5108152;27;37357;-61
2022/05/02 08:15:50;;;;;;;;;;;14.40;78.60;;;;;;5107705;27;37448;-60
2022/05/02 08:18:26;;;;;;;;;;;14.60;78.60;;;;;;5108011;27;36052;-61
2022/05/02 08:20:55;;;;;;;;;;;14.70;77.10;;;;;;5108356;27;38006;-58
2022/05/02 08:29:13;;;;;;;;;;;15.00;78.80;;;;;;5107323;27;38501;-60
2022/05/02 08:31:47;;;;;;;;;;;15.20;76.10;;;;;;5108179;27;38074;-61
2022/05/02 08:34:18;;;;;;;;;;;15.40;75.90;;;;;;5107483;27;37182;-61
2022/05/02 08:36:51;;;;;;;;;;;15.50;77.00;;;;;;5107245;27;37776;-61
2022/05/02 08:39:23;;;;;;;;;;;15.60;76.70;;;;;;5107373;27;37759;-61
2022/05/02 08:42:13;;;;;;;;;;;15.80;74.20;;;;;;5106658;27;36490;-61
2022/05/02 08:44:58;;;;;;;;;;;15.80;71.70;;;;;;5106852;27;37514;-61
2022/05/02 08:47:40;;;;;;;;;;;15.90;74.60;;;;;;5107269;27;37644;-61
2022/05/02 08:50:22;;;;;;;;;;;16.10;74.00;;;;;;5107996;27;38330;-61
2022/05/02 08:53:07;;;;;;;;;;;16.20;72.50;;;;;;5107271;27;36895;-61
2022/05/02 08:55:40;;;;;;;;;;;16.30;68.40;;;;;;5107021;27;37068;-61
2022/05/02 08:58:19;;;;;;;;;;;16.30;68.90;;;;;;5105410;27;38321;-61
2022/05/02 09:00:52;;;;;;;;;;;16.50;70.30;;;;;;5106348;27;37272;-61
2022/05/02 09:03:32;;;;;;;;;;;16.70;66.10;;;;;;5107530;27;38060;-61
2022/05/02 09:06:19;;;;;;;;;;;16.80;65.20;;;;;;5106592;27;36873;-61
2022/05/02 09:09:03;;;;;;;;;;;16.70;64.60;;;;;;5106059;27;37950;-61
2022/05/02 09:11:46;;;;;;;;;;;17.00;64.50;;;;;;5106975;27;39221;-60
2022/05/02 09:14:26;;;;;;;;;;;17.20;61.60;;;;;;5106688;27;37308;-61
2022/05/02 09:17:20;;;;;;;;;;;17.30;61.90;;;;;;5108091;27;37050;-61
2022/05/02 09:20:02;;;;;;;;;;;17.40;58.40;;;;;;5107966;27;38173;-61
2022/05/02 09:22:44;;;;;;;;;;;17.30;58.30;;;;;;5106647;27;37763;-61
2022/05/02 09:25:11;;;;;;;;;;;17.40;60.80;;;;;;5107138;27;36731;-61
2022/05/02 09:27:53;;;;;;;;;;;17.50;60.00;;;;;;5107156;27;35041;-61
2022/05/02 09:30:39;;;;;;;;;;;17.50;58.90;;;;;;5107134;27;40651;-61
2022/05/02 09:33:15;;;;;;;;;;;17.70;58.40;;;;;;5106493;27;38155;-61
2022/05/02 09:35:50;;;;;;;;;;;17.60;57.00;;;;;;5106020;27;36679;-61
2022/05/02 09:38:22;;;;;;;;;;;17.60;56.80;;;;;;5106258;27;36846;-61
2022/05/02 09:40:51;;;;;;;;;;;17.80;59.50;;;;;;5107859;27;38280;-61
2022/05/02 09:52:12;;;;;;;;;;;18.00;58.50;;;;;;5107386;27;39629;-61
2022/05/02 09:57:51;;;;;;;;;;;18.10;56.90;;;;;;5106625;27;39069;-61
2022/05/02 10:03:09;;;;;;;;;;;18.10;54.30;;;;;;5106817;27;38377;-61
2022/05/02 10:05:40;;;;;;;;;;;18.20;56.40;;;;;;5105570;27;37244;-61
2022/05/02 10:08:14;;;;;;;;;;;18.40;55.20;;;;;;5105617;27;37725;-60
2022/05/02 10:10:45;;;;;;;;;;;18.40;55.30;;;;;;5104593;27;37146;-60
2022/05/02 10:13:21;;;;;;;;;;;18.50;57.10;;;;;;5093574;27;36824;-61
2022/05/02 10:15:54;;;;;;;;;;;18.40;53.00;;;;;;5103699;27;38408;-60
2022/05/02 10:18:28;;;;;;;;;;;18.20;55.00;;;;;;5103514;27;37558;-60
2022/05/02 10:21:03;;;;;;;;;;;18.00;53.00;;;;;;5103497;27;36422;-60
2022/05/02 10:23:45;;;;;;;;;;;18.00;55.60;;;;;;5102206;27;37712;-61
2022/05/02 10:26:19;;;;;;;;;;;18.00;54.20;;;;;;5102157;27;39933;-60
2022/05/02 10:28:57;;;;;;;;;;;18.00;54.80;;;;;;5101671;27;37957;-61
2022/05/02 10:31:29;;;;;;;;;;;18.00;56.10;;;;;;5105919;27;36955;-61
2022/05/02 10:34:01;;;;;;;;;;;17.90;54.50;;;;;;5105477;27;37555;-60
2022/05/02 10:36:34;;;;;;;;;;;17.50;52.70;;;;;;5105382;27;37809;-60
2022/05/02 10:39:04;;;;;;;;;;;17.20;54.40;;;;;;5106942;27;37572;-60
2022/05/02 10:41:37;;;;;;;;;;;17.20;55.50;;;;;;5104585;27;36243;-60
2022/05/02 10:44:05;;;;;;;;;;;17.20;55.50;;;;;;5105991;27;38409;-60
2022/05/02 10:46:34;;;;;;;;;;;17.20;56.70;;;;;;5105907;27;38619;-60
2022/05/02 10:49:03;;;;;;;;;;;17.20;55.90;;;;;;5106552;27;38128;-60
2022/05/02 10:51:40;;;;;;;;;;;17.30;54.60;;;;;;5106015;27;37042;-60
2022/05/02 10:54:09;;;;;;;;;;;17.40;55.50;;;;;;5106002;27;38557;-60
2022/05/02 10:56:41;;;;;;;;;;;17.50;55.20;;;;;;5104936;27;38136;-60
2022/05/02 10:59:10;;;;;;;;;;;17.50;55.40;;;;;;5106629;27;37052;-61
2022/05/02 11:01:58;;;;;;;;;;;17.60;53.80;;;;;;5102592;27;37622;-61
2022/05/02 11:04:30;;;;;;;;;;;17.60;51.20;;;;;;5098988;27;38329;-60
2022/05/02 11:07:07;;;;;;;;;;;17.60;54.50;;;;;;5104788;27;38313;-59
2022/05/02 11:09:40;;;;;;;;;;;17.60;54.30;;;;;;5105054;27;37195;-60
2022/05/02 11:12:11;;;;;;;;;;;17.60;52.60;;;;;;5104567;27;36209;-60
2022/05/02 11:14:45;;;;;;;;;;;17.60;53.50;;;;;;5105913;27;37466;-60
2022/05/02 11:17:17;;;;;;;;;;;17.70;50.70;;;;;;5106378;27;37498;-60
2022/05/02 11:22:41;;;;;;;;;;;17.70;51.00;;;;;;5107162;27;36424;-61
2022/05/02 11:25:12;;;;;;;;;;;17.80;51.70;;;;;;5107930;27;37822;-61
2022/05/02 11:27:44;;;;;;;;;;;17.70;48.60;;;;;;5104354;27;38827;-61
2022/05/02 11:30:12;;;;;;;;;;;17.70;51.20;;;;;;5102228;27;37662;-60
2022/05/02 11:32:57;;;;;;;;;;;17.70;53.40;;;;;;5105035;27;36897;-60
2022/05/02 11:35:25;;;;;;;;;;;17.80;53.30;;;;;;5107470;27;37428;-60
2022/05/02 11:37:56;;;;;;;;;;;17.90;53.40;;;;;;5107938;27;38800;-60
2022/05/02 11:40:27;;;;;;;;;;;17.90;53.40;;;;;;5108304;27;37066;-60
2022/05/02 11:42:55;;;;;;;;;;;17.90;52.50;;;;;;5108270;27;36236;-60
2022/05/02 11:45:28;;;;;;;;;;;18.00;53.90;;;;;;5107798;27;37857;-60
2022/05/02 11:48:06;;;;;;;;;;;18.10;54.00;;;;;;5107975;27;38212;-60
2022/05/02 11:50:40;;;;;;;;;;;18.10;56.80;;;;;;5108986;27;36912;-60
2022/05/02 11:53:10;;;;;;;;;;;18.10;54.80;;;;;;5109519;27;36159;-61
2022/05/02 11:55:40;;;;;;;;;;;18.10;54.20;;;;;;5109152;27;37487;-60
2022/05/02 11:58:10;;;;;;;;;;;18.10;53.70;;;;;;5108023;27;38252;-60
2022/05/02 12:00:37;;;;;;;;;;;18.00;51.60;;;;;;5108893;27;37964;-60
2022/05/02 12:03:11;;;;;;;;;;;18.00;52.10;;;;;;5109632;27;36986;-60
2022/05/02 12:05:40;;;;;;;;;;;18.00;51.80;;;;;;5107668;27;37731;-60
2022/05/02 12:08:10;;;;;;;;;;;17.90;51.40;;;;;;5108800;27;38271;-60
2022/05/02 12:10:40;;;;;;;;;;;17.70;51.10;;;;;;5108804;27;38008;-60
2022/05/02 12:13:10;;;;;;;;;;;17.60;51.60;;;;;;5108589;27;37742;-61
2022/05/02 12:15:52;;;;;;;;;;;17.50;54.60;;;;;;5108951;27;38506;-60
2022/05/02 12:18:19;;;;;;;;;;;17.50;55.40;;;;;;5108561;27;38764;-60
2022/05/02 12:20:50;;;;;;;;;;;17.50;59.20;;;;;;5108335;27;38290;-60
2022/05/02 12:23:19;;;;;;;;;;;17.40;59.10;;;;;;5108457;27;37938;-61
2022/05/02 12:25:47;;;;;;;;;;;17.20;58.70;;;;;;5108230;27;38148;-60
2022/05/02 12:28:14;;;;;;;;;;;17.00;61.20;;;;;;5108316;27;37818;-60
2022/05/02 12:30:41;;;;;;;;;;;16.90;62.80;;;;;;5109658;27;35779;-60
2022/05/02 12:33:09;;;;;;;;;;;16.90;63.60;;;;;;5107872;27;38790;-61
2022/05/02 12:35:37;;;;;;;;;;;16.90;64.30;;;;;;5106852;27;38428;-60
2022/05/02 12:38:11;;;;;;;;;;;16.90;64.60;;;;;;5107799;27;37697;-60
2022/05/02 12:40:41;;;;;;;;;;;17.10;65.50;;;;;;5108334;27;37035;-60
2022/05/02 12:43:10;;;;;;;;;;;17.10;66.20;;;;;;5106948;27;37334;-60
2022/05/02 12:45:43;;;;;;;;;;;17.20;65.80;;;;;;5105518;27;37564;-60
2022/05/02 12:48:16;;;;;;;;;;;17.20;64.70;;;;;;5106906;27;38552;-61
2022/05/02 12:50:45;;;;;;;;;;;17.10;64.90;;;;;;5104866;27;37272;-60
2022/05/02 12:54:09;;;;;;;;;;;17.10;64.90;;;;;;5106847;27;35127;-60
2022/05/02 12:56:07;;;;;;;;;;;17.00;64.80;;;;;;5105275;27;37098;-60
2022/05/02 13:01:20;;;;;;;;;;;16.90;64.10;;;;;;5107278;27;38337;-60
2022/05/02 13:03:54;;;;;;;;;;;16.90;64.90;;;;;;5108080;27;36494;-60
2022/05/02 13:06:21;;;;;;;;;;;16.90;68.30;;;;;;5105828;27;36777;-60
2022/05/02 13:08:48;;;;;;;;;;;16.90;67.70;;;;;;5108029;27;37506;-60
2022/05/02 13:11:20;;;;;;;;;;;17.00;70.10;;;;;;5106859;27;36640;-61
2022/05/02 13:13:49;;;;;;;;;;;16.90;65.20;;;;;;5106919;27;37980;-60
2022/05/02 13:16:17;;;;;;;;;;;16.90;67.60;;;;;;5107833;27;38271;-60
2022/05/02 13:18:51;;;;;;;;;;;16.90;67.20;;;;;;5107937;27;38535;-60
2022/05/02 13:21:18;;;;;;;;;;;16.90;67.90;;;;;;5106622;27;36836;-60
2022/05/02 13:23:46;;;;;;;;;;;16.90;67.80;;;;;;5107798;27;38153;-60
2022/05/02 13:26:29;;;;;;;;;;;16.90;65.30;;;;;;5107946;27;40991;-60
2022/05/02 13:29:03;;;;;;;;;;;16.90;66.30;;;;;;5108040;27;37543;-60
2022/05/02 13:31:33;;;;;;;;;;;16.80;66.40;;;;;;5106752;27;37283;-60
2022/05/02 13:34:03;;;;;;;;;;;16.80;66.10;;;;;;5107690;27;36360;-60
2022/05/02 13:36:31;;;;;;;;;;;16.80;67.00;;;;;;5105749;27;37377;-60
2022/05/02 13:39:03;;;;;;;;;;;16.80;66.80;;;;;;5106809;27;37632;-60
2022/05/02 13:41:34;;;;;;;;;;;16.70;66.90;;;;;;5105520;27;36636;-59
2022/05/02 13:44:09;;;;;;;;;;;16.60;67.60;;;;;;5106706;27;36308;-60
2022/05/02 13:46:45;;;;;;;;;;;16.60;66.10;;;;;;5106398;27;38648;-60
2022/05/02 13:49:18;;;;;;;;;;;16.60;69.20;;;;;;5105493;27;38280;-60
2022/05/02 13:51:50;;;;;;;;;;;16.60;69.00;;;;;;5106623;27;35681;-61
2022/05/02 13:54:23;;;;;;;;;;;16.60;66.90;;;;;;5105278;27;36421;-60
2022/05/02 13:56:56;;;;;;;;;;;16.50;68.20;;;;;;5105478;27;37566;-61
2022/05/02 13:59:28;;;;;;;;;;;16.50;68.60;;;;;;5107131;27;38564;-60
2022/05/02 14:02:00;;;;;;;;;;;16.50;69.80;;;;;;5104545;27;36677;-61
2022/05/02 14:04:39;;;;;;;;;;;16.50;70.30;;;;;;5107766;27;37049;-60
2022/05/02 14:07:16;;;;;;;;;;;16.50;66.30;;;;;;5103401;27;36494;-60
2022/05/02 14:09:49;;;;;;;;;;;16.40;69.20;;;;;;5105118;27;37354;-60
2022/05/02 14:12:29;;;;;;;;;;;16.50;70.10;;;;;;5105521;27;36986;-60
2022/05/02 14:14:59;;;;;;;;;;;16.40;69.00;;;;;;5105031;27;36525;-60
2022/05/02 14:17:35;;;;;;;;;;;16.30;68.00;;;;;;5105732;27;40446;-60
2022/05/02 14:20:22;;;;;;;;;;;16.30;68.60;;;;;;5106713;27;38990;-61
2022/05/02 14:22:52;;;;;;;;;;;16.30;69.10;;;;;;5108389;27;37575;-60
2022/05/02 14:25:29;;;;;;;;;;;16.20;69.80;;;;;;5108199;27;36833;-61
2022/05/02 14:27:57;;;;;;;;;;;16.20;69.70;;;;;;5106605;27;37816;-60
2022/05/02 14:30:26;;;;;;;;;;;16.00;72.30;;;;;;5106415;27;38799;-60
2022/05/02 14:32:54;;;;;;;;;;;16.00;72.30;;;;;;5107305;27;36984;-60
2022/05/02 14:35:22;;;;;;;;;;;15.90;73.50;;;;;;5107246;27;36688;-60
2022/05/02 14:37:49;;;;;;;;;;;15.90;74.40;;;;;;5105729;27;38297;-61
2022/05/02 14:40:16;;;;;;;;;;;15.90;73.10;;;;;;5107665;27;38553;-60
2022/05/02 14:42:44;;;;;;;;;;;15.90;73.00;;;;;;5106266;27;37959;-60
2022/05/02 14:45:11;;;;;;;;;;;15.80;71.40;;;;;;5106468;27;34213;-61
2022/05/02 14:47:41;;;;;;;;;;;15.70;73.00;;;;;;5105643;27;40026;-60
2022/05/02 14:50:09;;;;;;;;;;;15.60;73.10;;;;;;5105576;27;37319;-60
2022/05/02 14:52:41;;;;;;;;;;;15.60;72.70;;;;;;5105371;27;36920;-60
2022/05/02 14:55:09;;;;;;;;;;;15.60;71.30;;;;;;5105324;27;37116;-60
2022/05/02 14:57:38;;;;;;;;;;;15.50;73.50;;;;;;5105147;27;37590;-60
2022/05/02 15:00:07;;;;;;;;;;;15.50;72.90;;;;;;5104292;27;37749;-60
2022/05/02 15:02:35;;;;;;;;;;;15.40;71.40;;;;;;5104598;27;36897;-60
2022/05/02 15:05:04;;;;;;;;;;;15.40;72.10;;;;;;5106240;27;36003;-60
2022/05/02 15:07:42;;;;;;;;;;;15.40;71.90;;;;;;5102301;27;37253;-60
2022/05/02 15:10:14;;;;;;;;;;;15.30;72.00;;;;;;5106642;27;37825;-60
2022/05/02 15:12:50;;;;;;;;;;;15.30;70.80;;;;;;5106313;27;37118;-60
2022/05/02 15:15:28;;;;;;;;;;;15.20;69.00;;;;;;5107854;27;35143;-60
2022/05/02 15:18:00;;;;;;;;;;;15.10;68.90;;;;;;5107643;27;36073;-60
2022/05/02 15:20:31;;;;;;;;;;;15.00;69.50;;;;;;5108852;27;38035;-60
2022/05/02 15:23:01;;;;;;;;;;;15.00;70.80;;;;;;5109966;27;35605;-60